Meteorológiai információk azoknak akik tudják olvasni.

METAR = LHBP 280930Z 12003KT 070V160 CAVOK 14/12 Q1017 NOSIG

9 órás TAF = TAF TAF LHBP 242330Z 2423/2424 30008KT CAVOK BECMG 2506/2509 24010KT OVC030 TEMPO 2509/2515 24015G25KT 8000 -RA BKN013 OVC025 BECMG 2515/2518 30008KT CAVOK

24 órás TAF = TAF LHBP 271715Z 2718/2818 VRB03KT CAVOK BECMG 2718/2721 3000 BR TEMPO 2721/2808 1100 BCFG BKN002 BECMG 2808/2811 5000 BR BKN008

ÁLLOMÁS.................... LHBP
ÉSZLELÉS................... Wed Oct 28, 10:30 CET
MOST....................... Wed Oct 28, 12:56 CET
IDO........................ 2:26 órával ezelőtt
SZÉL....................... KDK irányból 3 csomó
LÁTÁSTÁVOLSÁG.............. 10 km vagy több
FELHŐZET................... jelentős felhőzet nincs
HŐMÉRSÉKLET................ 57°F (14°C)
HARMATPONT................. 54°F (12°C)
PÁRATARTALOM............... 88%
LÉGNYOMÁS.................. 1017 hPa (30.03 in Hg)

További információ LHBP állomásról

Meteor információ kérése:        állomásról.    

 

www.tothgeza.hu

 

English version
Copyright © 2003-2020 Tóth Géza Minden jog fenntartva.